Time;durP1;ratioP1;P1;durP2;ratioP2;P2;SDS_P1;SDS_P2;PMS_P1;PMS_P2;Temp;Humidity;BMP_temperature;BMP_pressure;BME280_temperature;BME280_humidity;BME280_pressure;Samples;Min_cycle;Max_cycle;Signal;HPM_P1;HPM_P2
2022/11/28 00:01:44;;;;;;;36.67;29.17;;;;;;;;;;10237446;28;20523;-64
2022/11/28 00:06:47;;;;;;;41.95;32.10;;;;;;;;;;10237463;28;20077;-65
2022/11/28 00:11:47;;;;;;;39.38;32.20;;;;;;;;;;10235712;28;20053;-64
2022/11/28 00:16:46;;;;;;;39.60;29.85;;;;;;;;;;10236928;28;20045;-64
2022/11/28 00:21:45;;;;;;;35.25;28.58;;;;;;;;;;10235520;28;20080;-64
2022/11/28 00:26:43;;;;;;;35.30;28.65;;;;;;;;;;10237025;28;20077;-64
2022/11/28 00:31:42;;;;;;;34.88;28.35;;;;;;;;;;10235265;28;20088;-63
2022/11/28 00:36:41;;;;;;;37.78;28.58;;;;;;;;;;10236150;28;20049;-63
2022/11/28 00:41:40;;;;;;;32.05;26.27;;;;;;;;;;10235959;28;20049;-63
2022/11/28 00:46:39;;;;;;;36.53;30.20;;;;;;;;;;10236251;28;20453;-64
2022/11/28 00:51:38;;;;;;;34.28;27.75;;;;;;;;;;10235546;28;20092;-63
2022/11/28 00:56:38;;;;;;;31.30;26.35;;;;;;;;;;10234127;28;20042;-63
2022/11/28 01:01:38;;;;;;;33.58;27.30;;;;;;;;;;10235142;28;20084;-64
2022/11/28 01:06:38;;;;;;;35.67;28.63;;;;;;;;;;10235546;28;20052;-65
2022/11/28 01:11:37;;;;;;;32.85;28.02;;;;;;;;;;10235105;28;20077;-64
2022/11/28 01:16:37;;;;;;;35.63;28.17;;;;;;;;;;10235437;28;20077;-64
2022/11/28 01:21:35;;;;;;;34.55;27.88;;;;;;;;;;10235012;28;20077;-63
2022/11/28 01:26:34;;;;;;;36.88;27.73;;;;;;;;;;10239807;28;20367;-64
2022/11/28 01:31:32;;;;;;;34.40;28.45;;;;;;;;;;10243033;28;20077;-64
2022/11/28 01:36:32;;;;;;;35.75;26.35;;;;;;;;;;10244472;28;20072;-64
2022/11/28 01:41:30;;;;;;;37.05;26.92;;;;;;;;;;10281582;28;20049;-64
2022/11/28 01:46:28;;;;;;;32.15;25.77;;;;;;;;;;10283020;28;20061;-63
2022/11/28 01:51:27;;;;;;;30.98;24.58;;;;;;;;;;10282707;28;20457;-63
2022/11/28 01:56:28;;;;;;;29.20;24.38;;;;;;;;;;10282442;28;20072;-64
2022/11/28 02:01:27;;;;;;;31.83;24.23;;;;;;;;;;10282194;28;20411;-63
2022/11/28 02:06:25;;;;;;;28.77;22.70;;;;;;;;;;10282210;28;20418;-64
2022/11/28 02:11:38;;;;;;;28.70;22.13;;;;;;;;;;10281512;28;20096;-63
2022/11/28 02:16:45;;;;;;;36.42;26.73;;;;;;;;;;10269520;28;20057;-64
2022/11/28 02:21:51;;;;;;;26.88;20.27;;;;;;;;;;10281798;28;20502;-65
2022/11/28 02:26:56;;;;;;;28.88;23.17;;;;;;;;;;10280918;28;20052;-64
2022/11/28 02:32:05;;;;;;;23.80;19.33;;;;;;;;;;10281437;28;20091;-64
2022/11/28 02:37:06;;;;;;;20.05;17.77;;;;;;;;;;10279816;28;20049;-64
2022/11/28 02:42:09;;;;;;;25.00;19.70;;;;;;;;;;10281028;28;20147;-64
2022/11/28 02:47:11;;;;;;;19.67;16.02;;;;;;;;;;10280983;28;20052;-65
2022/11/28 02:52:10;;;;;;;24.83;19.17;;;;;;;;;;10280656;28;20091;-64
2022/11/28 02:57:08;;;;;;;19.40;16.85;;;;;;;;;;10279519;28;20064;-63
2022/11/28 03:02:12;;;;;;;21.65;17.50;;;;;;;;;;10280210;28;20049;-64
2022/11/28 03:07:19;;;;;;;21.65;17.08;;;;;;;;;;10280578;28;20045;-64
2022/11/28 03:12:22;;;;;;;17.58;15.43;;;;;;;;;;10280010;28;20466;-64
2022/11/28 03:17:25;;;;;;;18.27;15.35;;;;;;;;;;10279285;28;20522;-64
2022/11/28 03:22:28;;;;;;;18.00;14.07;;;;;;;;;;10279926;28;20521;-64
2022/11/28 03:27:31;;;;;;;18.58;15.75;;;;;;;;;;10279397;28;20069;-64
2022/11/28 03:32:33;;;;;;;19.98;14.77;;;;;;;;;;10278431;28;20076;-64
2022/11/28 03:37:33;;;;;;;16.55;13.63;;;;;;;;;;10279480;28;20049;-64
2022/11/28 03:42:34;;;;;;;16.30;13.73;;;;;;;;;;10278724;28;20036;-64
2022/11/28 03:47:36;;;;;;;15.35;13.13;;;;;;;;;;10276109;28;20052;-64
2022/11/28 03:52:36;;;;;;;18.63;14.23;;;;;;;;;;10278379;28;20053;-64
2022/11/28 03:57:35;;;;;;;23.83;14.88;;;;;;;;;;10278202;28;20054;-64
2022/11/28 04:02:37;;;;;;;27.30;17.23;;;;;;;;;;10277356;28;20061;-64
2022/11/28 04:07:38;;;;;;;24.10;16.60;;;;;;;;;;10276397;28;20045;-64
2022/11/28 04:12:43;;;;;;;22.88;16.80;;;;;;;;;;10277705;28;20079;-63
2022/11/28 04:17:45;;;;;;;23.87;16.43;;;;;;;;;;10277135;28;20080;-64
2022/11/28 04:22:46;;;;;;;27.20;20.38;;;;;;;;;;10264091;28;20068;-63
2022/11/28 04:27:46;;;;;;;23.63;17.40;;;;;;;;;;10244554;28;20045;-63
2022/11/28 04:32:49;;;;;;;18.20;14.90;;;;;;;;;;10236034;28;20100;-64
2022/11/28 04:37:49;;;;;;;18.42;15.00;;;;;;;;;;10235864;28;20053;-63
2022/11/28 04:42:49;;;;;;;18.77;15.23;;;;;;;;;;10236302;28;20522;-64
2022/11/28 04:47:51;;;;;;;18.35;15.15;;;;;;;;;;10251250;28;20032;-63
2022/11/28 04:52:51;;;;;;;28.25;18.55;;;;;;;;;;10242422;28;20679;-64
2022/11/28 04:57:52;;;;;;;18.67;16.27;;;;;;;;;;10233415;28;20037;-63
2022/11/28 05:02:56;;;;;;;19.95;16.80;;;;;;;;;;10234884;28;20515;-64
2022/11/28 05:07:54;;;;;;;19.50;16.95;;;;;;;;;;10236024;28;20533;-63
2022/11/28 05:12:52;;;;;;;20.35;16.38;;;;;;;;;;10231717;28;20084;-65
2022/11/28 05:17:50;;;;;;;22.90;14.80;;;;;;;;;;10248307;28;20088;-64
2022/11/28 05:22:50;;;;;;;22.80;16.83;;;;;;;;;;10271953;28;20459;-64
2022/11/28 05:27:48;;;;;;;16.13;13.77;;;;;;;;;;10273014;28;20450;-64
2022/11/28 05:32:46;;;;;;;22.95;16.77;;;;;;;;;;10273254;28;20498;-64
2022/11/28 05:37:44;;;;;;;20.55;14.50;;;;;;;;;;10271792;28;20077;-66
2022/11/28 05:42:44;;;;;;;29.63;18.88;;;;;;;;;;10234573;28;20493;-64
2022/11/28 05:47:42;;;;;;;22.13;16.65;;;;;;;;;;10239093;28;20131;-64
2022/11/28 05:52:40;;;;;;;18.33;15.90;;;;;;;;;;10254911;28;20077;-64
2022/11/28 05:57:38;;;;;;;22.70;18.45;;;;;;;;;;10260394;28;20056;-65
2022/11/28 06:02:38;;;;;;;23.85;17.40;;;;;;;;;;10235992;28;20050;-64
2022/11/28 06:07:36;;;;;;;27.83;20.77;;;;;;;;;;10249142;28;20068;-64
2022/11/28 06:12:34;;;;;;;27.83;19.80;;;;;;;;;;10255884;28;20083;-63
2022/11/28 06:17:33;;;;;;;23.85;20.20;;;;;;;;;;10245904;28;20422;-64
2022/11/28 06:22:32;;;;;;;21.63;17.33;;;;;;;;;;10240234;28;20080;-64
2022/11/28 06:27:30;;;;;;;21.58;17.52;;;;;;;;;;10240556;28;20073;-65
2022/11/28 06:32:28;;;;;;;25.75;17.88;;;;;;;;;;10238221;28;20088;-64
2022/11/28 06:37:27;;;;;;;20.95;18.10;;;;;;;;;;10239825;28;20399;-65
2022/11/28 06:42:27;;;;;;;23.67;16.88;;;;;;;;;;10240784;28;20049;-64
2022/11/28 06:47:25;;;;;;;18.08;14.88;;;;;;;;;;10240441;28;20046;-65
2022/11/28 06:52:24;;;;;;;26.50;17.38;;;;;;;;;;10240400;28;20041;-64
2022/11/28 06:57:22;;;;;;;21.20;17.35;;;;;;;;;;10240880;28;20041;-64
2022/11/28 07:02:23;;;;;;;20.98;17.52;;;;;;;;;;10239256;28;20068;-64
2022/11/28 07:07:22;;;;;;;22.20;17.48;;;;;;;;;;10238612;28;20049;-63
2022/11/28 07:12:20;;;;;;;29.75;25.38;;;;;;;;;;10238939;28;20087;-64
2022/11/28 07:17:18;;;;;;;23.85;17.17;;;;;;;;;;10241982;28;20481;-64
2022/11/28 07:22:18;;;;;;;20.27;17.17;;;;;;;;;;10241123;28;20151;-64
2022/11/28 07:27:16;;;;;;;23.35;17.50;;;;;;;;;;10238951;28;20050;-64
2022/11/28 07:32:14;;;;;;;19.90;16.42;;;;;;;;;;10238824;28;20049;-64
2022/11/28 07:37:14;;;;;;;26.00;22.35;;;;;;;;;;10258868;28;20492;-65
2022/11/28 07:42:14;;;;;;;22.25;18.35;;;;;;;;;;10258056;28;20103;-65
2022/11/28 07:47:13;;;;;;;22.05;17.98;;;;;;;;;;10277470;28;20049;-64
2022/11/28 07:52:11;;;;;;;25.15;17.98;;;;;;;;;;10270325;28;20038;-64
2022/11/28 07:57:10;;;;;;;24.08;19.10;;;;;;;;;;10239733;28;20069;-64
2022/11/28 08:02:12;;;;;;;23.63;19.48;;;;;;;;;;10241766;28;20073;-65
2022/11/28 08:07:12;;;;;;;35.35;29.08;;;;;;;;;;10253689;28;20072;-64
2022/11/28 08:12:10;;;;;;;31.05;21.55;;;;;;;;;;10268404;28;20075;-64
2022/11/28 08:17:09;;;;;;;33.47;25.83;;;;;;;;;;10277530;28;20080;-66
2022/11/28 08:22:08;;;;;;;30.75;25.00;;;;;;;;;;10277292;28;20045;-64
2022/11/28 08:27:07;;;;;;;28.58;19.85;;;;;;;;;;10268738;28;20068;-63
2022/11/28 08:32:05;;;;;;;35.33;28.45;;;;;;;;;;10236511;28;20080;-65
2022/11/28 08:37:03;;;;;;;25.98;19.55;;;;;;;;;;10235927;28;20069;-65
2022/11/28 08:42:03;;;;;;;34.13;26.63;;;;;;;;;;10239351;28;20524;-65
2022/11/28 08:47:01;;;;;;;29.40;22.17;;;;;;;;;;10254085;28;20067;-65
2022/11/28 08:51:59;;;;;;;33.17;23.10;;;;;;;;;;10244914;28;20049;-65
2022/11/28 08:57:00;;;;;;;35.03;26.20;;;;;;;;;;10236227;28;20088;-63
2022/11/28 09:01:59;;;;;;;30.90;22.15;;;;;;;;;;10251892;28;20534;-63
2022/11/28 09:06:58;;;;;;;33.08;24.52;;;;;;;;;;10248725;28;20057;-64
2022/11/28 09:11:56;;;;;;;30.85;21.75;;;;;;;;;;10254966;28;20056;-64
2022/11/28 09:16:54;;;;;;;40.33;24.15;;;;;;;;;;10247427;28;20071;-64
2022/11/28 09:21:54;;;;;;;26.75;20.55;;;;;;;;;;10266946;28;20075;-64
2022/11/28 09:26:55;;;;;;;28.48;20.17;;;;;;;;;;10261869;28;20100;-63
2022/11/28 09:31:53;;;;;;;30.23;21.83;;;;;;;;;;10247802;28;20056;-63
2022/11/28 09:36:51;;;;;;;41.92;28.83;;;;;;;;;;10246132;28;20081;-64
2022/11/28 09:41:55;;;;;;;29.95;21.15;;;;;;;;;;10233453;28;20076;-64
2022/11/28 09:46:54;;;;;;;38.00;25.25;;;;;;;;;;10236565;28;20049;-64
2022/11/28 09:51:56;;;;;;;28.40;20.58;;;;;;;;;;10240010;28;20077;-64
2022/11/28 09:56:56;;;;;;;33.15;23.25;;;;;;;;;;10241145;28;20076;-64
2022/11/28 10:02:00;;;;;;;38.15;25.38;;;;;;;;;;10241822;28;20053;-64
2022/11/28 10:07:04;;;;;;;34.60;26.05;;;;;;;;;;10241548;28;20073;-62
2022/11/28 10:12:10;;;;;;;39.60;31.15;;;;;;;;;;10242080;28;20077;-64
2022/11/28 10:17:12;;;;;;;34.67;25.27;;;;;;;;;;10241715;28;20065;-64
2022/11/28 10:22:13;;;;;;;35.25;26.23;;;;;;;;;;10240867;28;20069;-64
2022/11/28 10:27:14;;;;;;;42.35;26.58;;;;;;;;;;10241089;28;20068;-65
2022/11/28 10:32:15;;;;;;;41.65;32.38;;;;;;;;;;10241632;28;20053;-64
2022/11/28 10:37:15;;;;;;;38.80;28.83;;;;;;;;;;10240860;28;20072;-64
2022/11/28 10:42:18;;;;;;;33.28;24.17;;;;;;;;;;10240660;28;20046;-64
2022/11/28 10:47:19;;;;;;;36.20;24.77;;;;;;;;;;10240950;28;20037;-65
2022/11/28 10:52:21;;;;;;;28.02;21.15;;;;;;;;;;10240053;28;20591;-64
2022/11/28 10:57:23;;;;;;;36.97;25.63;;;;;;;;;;10238614;28;20073;-64
2022/11/28 11:02:22;;;;;;;32.05;22.00;;;;;;;;;;10240249;28;20096;-65
2022/11/28 11:07:24;;;;;;;32.25;22.25;;;;;;;;;;10239754;28;20030;-64
2022/11/28 11:12:31;;;;;;;27.88;20.23;;;;;;;;;;10239108;28;20056;-64
2022/11/28 11:17:32;;;;;;;30.02;20.10;;;;;;;;;;10239583;28;20498;-64
2022/11/28 11:22:33;;;;;;;27.38;20.15;;;;;;;;;;10239583;28;20053;-63
2022/11/28 11:27:35;;;;;;;46.13;31.13;;;;;;;;;;10237142;28;20057;-63
2022/11/28 11:32:33;;;;;;;34.70;25.00;;;;;;;;;;10239376;28;20085;-64
2022/11/28 11:37:32;;;;;;;56.22;42.42;;;;;;;;;;10238711;28;20080;-64
2022/11/28 11:42:31;;;;;;;64.22;43.33;;;;;;;;;;10237806;28;20447;-64
2022/11/28 11:47:41;;;;;;;55.70;40.40;;;;;;;;;;10238379;28;20069;-64
2022/11/28 11:52:39;;;;;;;37.28;28.33;;;;;;;;;;10238633;28;20083;-64
2022/11/28 11:57:38;;;;;;;34.60;28.55;;;;;;;;;;10237101;28;20081;-64
2022/11/28 12:02:40;;;;;;;42.30;29.58;;;;;;;;;;10237469;28;20049;-63
2022/11/28 12:07:42;;;;;;;42.78;30.05;;;;;;;;;;10237291;28;20073;-64
2022/11/28 12:12:41;;;;;;;28.95;21.25;;;;;;;;;;10237361;28;20045;-64
2022/11/28 12:17:42;;;;;;;28.52;22.70;;;;;;;;;;10236404;28;20084;-64
2022/11/28 12:23:02;;;;;;;39.80;30.57;;;;;;;;;;10237541;28;20052;-64
2022/11/28 12:28:05;;;;;;;33.58;24.20;;;;;;;;;;10236984;28;20045;-64
2022/11/28 12:33:10;;;;;;;68.47;42.97;;;;;;;;;;10236298;28;20493;-64
2022/11/28 12:38:19;;;;;;;32.42;27.08;;;;;;;;;;10236765;28;20548;-64
2022/11/28 12:43:22;;;;;;;53.92;38.63;;;;;;;;;;10237002;28;20533;-64
2022/11/28 12:48:27;;;;;;;32.88;24.58;;;;;;;;;;10235382;28;20076;-65
2022/11/28 12:53:40;;;;;;;33.60;28.07;;;;;;;;;;10235350;28;20503;-64
2022/11/28 12:58:40;;;;;;;34.08;25.15;;;;;;;;;;10235938;28;20510;-64
2022/11/28 13:03:42;;;;;;;32.88;23.52;;;;;;;;;;10235462;28;20551;-65
2022/11/28 13:09:00;;;;;;;31.30;21.98;;;;;;;;;;10236158;28;20056;-64
2022/11/28 13:14:00;;;;;;;30.15;22.60;;;;;;;;;;10236512;28;20095;-63
2022/11/28 13:19:02;;;;;;;40.15;27.58;;;;;;;;;;10235819;28;20088;-63
2022/11/28 13:24:04;;;;;;;35.00;26.75;;;;;;;;;;10235734;28;20068;-63
2022/11/28 13:29:09;;;;;;;28.70;21.52;;;;;;;;;;10235707;28;20478;-63
2022/11/28 13:34:11;;;;;;;50.65;34.70;;;;;;;;;;10235592;28;20427;-63
2022/11/28 13:39:14;;;;;;;35.17;24.75;;;;;;;;;;10234049;28;20471;-63
2022/11/28 13:44:16;;;;;;;39.25;28.65;;;;;;;;;;10235209;28;20069;-63
2022/11/28 13:49:21;;;;;;;31.83;23.70;;;;;;;;;;10235071;28;20080;-64
2022/11/28 13:54:19;;;;;;;;;;;;;;;;;;10235336;28;20049;-63
2022/11/28 13:59:21;;;;;;;26.60;20.92;;;;;;;;;;10234775;28;19960;-63
2022/11/28 14:04:19;;;;;;;39.03;27.92;;;;;;;;;;10234425;28;20092;-64
2022/11/28 14:09:26;;;;;;;40.78;32.45;;;;;;;;;;10233827;28;20507;-64
2022/11/28 14:14:34;;;;;;;46.42;35.28;;;;;;;;;;10234377;28;20041;-65
2022/11/28 14:19:42;;;;;;;69.93;44.33;;;;;;;;;;10233430;28;20073;-64
2022/11/28 14:24:49;;;;;;;50.58;33.83;;;;;;;;;;10234067;28;20219;-63
2022/11/28 14:29:50;;;;;;;50.10;32.22;;;;;;;;;;10234140;28;20052;-63
2022/11/28 14:34:50;;;;;;;36.75;22.48;;;;;;;;;;10238854;28;20046;-63
2022/11/28 14:39:49;;;;;;;39.83;26.23;;;;;;;;;;10239524;28;20108;-64
2022/11/28 14:44:50;;;;;;;29.75;20.58;;;;;;;;;;10240158;28;20454;-64
2022/11/28 14:49:49;;;;;;;32.25;23.20;;;;;;;;;;10240298;28;20053;-64
2022/11/28 14:54:48;;;;;;;62.13;37.83;;;;;;;;;;10238185;28;20055;-63
2022/11/28 14:59:47;;;;;;;47.05;29.20;;;;;;;;;;10238029;28;20498;-64
2022/11/28 15:04:53;;;;;;;53.17;33.10;;;;;;;;;;10237951;28;20652;-66
2022/11/28 15:09:57;;;;;;;53.90;33.00;;;;;;;;;;10237896;28;20049;-64
2022/11/28 15:15:03;;;;;;;49.65;37.13;;;;;;;;;;10239457;28;20403;-63
2022/11/28 15:20:07;;;;;;;34.33;25.73;;;;;;;;;;10238027;28;20049;-65
2022/11/28 15:25:17;;;;;;;37.45;25.45;;;;;;;;;;10237673;28;20045;-62
2022/11/28 15:30:16;;;;;;;71.72;44.55;;;;;;;;;;10237562;28;20049;-64
2022/11/28 15:35:18;;;;;;;35.15;26.17;;;;;;;;;;10236876;28;20422;-63
2022/11/28 15:40:19;;;;;;;55.70;37.47;;;;;;;;;;10238331;28;20083;-65
2022/11/28 15:45:22;;;;;;;64.00;38.08;;;;;;;;;;10237736;28;20107;-64
2022/11/28 15:50:24;;;;;;;35.47;25.17;;;;;;;;;;10236412;28;20060;-64
2022/11/28 15:55:22;;;;;;;28.85;23.48;;;;;;;;;;10237372;28;20046;-64
2022/11/28 16:00:23;;;;;;;31.52;23.88;;;;;;;;;;10237321;28;20084;-64
2022/11/28 16:05:23;;;;;;;40.38;28.42;;;;;;;;;;10236156;28;20049;-64
2022/11/28 16:10:23;;;;;;;31.15;22.00;;;;;;;;;;10236662;28;20038;-65
2022/11/28 16:15:23;;;;;;;38.22;27.02;;;;;;;;;;10247169;28;20068;-64
2022/11/28 16:20:22;;;;;;;27.52;21.25;;;;;;;;;;10248519;28;20084;-64
2022/11/28 16:25:24;;;;;;;28.48;21.85;;;;;;;;;;10249256;28;20099;-64
2022/11/28 16:30:26;;;;;;;29.48;23.15;;;;;;;;;;10241490;28;20045;-64
2022/11/28 16:35:25;;;;;;;32.50;21.50;;;;;;;;;;10244217;28;20059;-65
2022/11/28 16:40:25;;;;;;;24.90;19.67;;;;;;;;;;10242842;28;20708;-64
2022/11/28 16:45:25;;;;;;;30.45;22.42;;;;;;;;;;10256371;28;20053;-64
2022/11/28 16:50:23;;;;;;;28.20;21.42;;;;;;;;;;10249087;28;20067;-64
2022/11/28 16:55:43;;;;;;;30.08;22.63;;;;;;;;;;10252661;28;20080;-64
2022/11/28 17:00:46;;;;;;;35.38;25.42;;;;;;;;;;10248939;28;20041;-64
2022/11/28 17:05:44;;;;;;;34.92;27.70;;;;;;;;;;10247855;28;20045;-64
2022/11/28 17:10:43;;;;;;;34.03;25.30;;;;;;;;;;10256018;28;20065;-64
2022/11/28 17:15:41;;;;;;;24.15;17.67;;;;;;;;;;10255722;28;20522;-64
2022/11/28 17:20:40;;;;;;;33.20;24.20;;;;;;;;;;10249000;28;20065;-66
2022/11/28 17:25:38;;;;;;;25.40;18.88;;;;;;;;;;10235289;28;20069;-64
2022/11/28 17:30:37;;;;;;;29.58;22.05;;;;;;;;;;10249625;28;20101;-64
2022/11/28 17:35:39;;;;;;;32.30;23.50;;;;;;;;;;10257206;28;20061;-63
2022/11/28 17:40:41;;;;;;;29.05;23.05;;;;;;;;;;10257691;28;20122;-64
2022/11/28 17:45:39;;;;;;;22.13;17.33;;;;;;;;;;10252173;28;20045;-64
2022/11/28 17:50:37;;;;;;;30.20;22.48;;;;;;;;;;10255015;28;20084;-63
2022/11/28 17:55:41;;;;;;;29.13;21.75;;;;;;;;;;10251063;28;20052;-64
2022/11/28 18:00:39;;;;;;;27.80;20.55;;;;;;;;;;10258811;28;20069;-64
2022/11/28 18:05:38;;;;;;;53.00;32.25;;;;;;;;;;10232378;28;20065;-65
2022/11/28 18:10:37;;;;;;;23.90;18.80;;;;;;;;;;10259319;28;20426;-65
2022/11/28 18:15:38;;;;;;;24.42;19.95;;;;;;;;;;10261300;28;20065;-64
2022/11/28 18:20:37;;;;;;;31.67;23.75;;;;;;;;;;10246819;28;20081;-64
2022/11/28 18:25:40;;;;;;;22.90;17.70;;;;;;;;;;10262264;28;20095;-64
2022/11/28 18:30:42;;;;;;;24.23;20.65;;;;;;;;;;10256915;28;20079;-63
2022/11/28 18:35:41;;;;;;;36.95;26.70;;;;;;;;;;10264089;28;20045;-63
2022/11/28 18:40:39;;;;;;;33.05;24.67;;;;;;;;;;10262309;28;21128;-64
2022/11/28 18:45:38;;;;;;;48.78;33.63;;;;;;;;;;10260197;28;20045;-64
2022/11/28 18:50:39;;;;;;;44.92;29.70;;;;;;;;;;10263005;28;20486;-64
2022/11/28 18:55:37;;;;;;;26.33;21.42;;;;;;;;;;10271415;28;20056;-64
2022/11/28 19:00:35;;;;;;;34.08;22.15;;;;;;;;;;10253665;28;20105;-64
2022/11/28 19:05:33;;;;;;;29.65;21.15;;;;;;;;;;10257498;28;20467;-64
2022/11/28 19:10:38;;;;;;;35.47;24.50;;;;;;;;;;10279615;28;20148;-64
2022/11/28 19:15:38;;;;;;;28.08;21.45;;;;;;;;;;10278937;28;20056;-65
2022/11/28 19:20:40;;;;;;;29.48;23.30;;;;;;;;;;10277233;28;20084;-64
2022/11/28 19:25:41;;;;;;;28.42;21.38;;;;;;;;;;10270050;28;20065;-63
2022/11/28 19:30:39;;;;;;;32.10;21.75;;;;;;;;;;10278176;28;20073;-64
2022/11/28 19:35:37;;;;;;;29.40;21.73;;;;;;;;;;10278766;28;20071;-64
2022/11/28 19:40:36;;;;;;;33.78;22.67;;;;;;;;;;10278536;28;20069;-64
2022/11/28 19:45:35;;;;;;;32.50;21.33;;;;;;;;;;10269302;28;20085;-64
2022/11/28 19:50:34;;;;;;;49.45;28.02;;;;;;;;;;10257824;28;20509;-64
2022/11/28 19:55:34;;;;;;;35.58;22.10;;;;;;;;;;10262974;28;20045;-64
2022/11/28 20:00:32;;;;;;;37.42;24.70;;;;;;;;;;10267442;28;20107;-63
2022/11/28 20:05:32;;;;;;;28.83;21.20;;;;;;;;;;10264562;28;20041;-63
2022/11/28 20:10:31;;;;;;;31.92;22.45;;;;;;;;;;10240545;28;20072;-64
2022/11/28 20:15:29;;;;;;;49.13;32.33;;;;;;;;;;10256141;28;20418;-64
2022/11/28 20:20:28;;;;;;;35.80;21.83;;;;;;;;;;10236641;28;20087;-64
2022/11/28 20:25:28;;;;;;;28.70;19.45;;;;;;;;;;10257377;28;20087;-63
2022/11/28 20:30:26;;;;;;;28.08;19.50;;;;;;;;;;10251987;28;20052;-64
2022/11/28 20:35:26;;;;;;;39.88;24.00;;;;;;;;;;10254473;28;20502;-64
2022/11/28 20:40:24;;;;;;;35.85;22.17;;;;;;;;;;10272324;28;20091;-64
2022/11/28 20:45:24;;;;;;;40.22;24.25;;;;;;;;;;10276151;28;20073;-64
2022/11/28 20:50:22;;;;;;;41.88;28.35;;;;;;;;;;10275850;28;20060;-63
2022/11/28 20:55:21;;;;;;;36.72;25.05;;;;;;;;;;10255899;28;20080;-64
2022/11/28 21:00:20;;;;;;;45.13;26.50;;;;;;;;;;10248072;28;20077;-63
2022/11/28 21:05:25;;;;;;;42.47;25.83;;;;;;;;;;10234920;28;20407;-63
2022/11/28 21:10:23;;;;;;;28.90;20.33;;;;;;;;;;10253489;28;20065;-64
2022/11/28 21:15:21;;;;;;;25.95;18.98;;;;;;;;;;10253467;28;20048;-64
2022/11/28 21:20:19;;;;;;;25.48;17.77;;;;;;;;;;10254027;28;20069;-64
2022/11/28 21:25:19;;;;;;;33.50;22.85;;;;;;;;;;10254635;28;20064;-63
2022/11/28 21:30:17;;;;;;;33.38;21.13;;;;;;;;;;10253626;28;20532;-63
2022/11/28 21:35:15;;;;;;;26.40;18.83;;;;;;;;;;10274977;28;20041;-63
2022/11/28 21:40:14;;;;;;;27.08;18.30;;;;;;;;;;10275024;28;20455;-63
2022/11/28 21:45:14;;;;;;;23.35;17.10;;;;;;;;;;10282995;28;20462;-64
2022/11/28 21:50:13;;;;;;;26.70;20.42;;;;;;;;;;10283440;28;20495;-64
2022/11/28 21:55:11;;;;;;;44.47;25.45;;;;;;;;;;10283049;28;20455;-64
2022/11/28 22:00:10;;;;;;;31.13;19.42;;;;;;;;;;10282113;28;20502;-64
2022/11/28 22:05:29;;;;;;;28.67;18.90;;;;;;;;;;10278592;28;20072;-64
2022/11/28 22:10:29;;;;;;;33.17;19.98;;;;;;;;;;10277119;28;20079;-64
2022/11/28 22:15:27;;;;;;;30.15;21.08;;;;;;;;;;10278248;28;20068;-64
2022/11/28 22:20:25;;;;;;;19.90;14.93;;;;;;;;;;10278989;28;20080;-62
2022/11/28 22:25:25;;;;;;;20.02;15.80;;;;;;;;;;10281682;28;20072;-64
2022/11/28 22:30:23;;;;;;;21.88;15.77;;;;;;;;;;10267942;28;20607;-63
2022/11/28 22:35:22;;;;;;;25.88;19.85;;;;;;;;;;10274493;28;20431;-63
2022/11/28 22:40:20;;;;;;;22.13;15.63;;;;;;;;;;10262597;28;20065;-63
2022/11/28 22:45:20;;;;;;;17.20;13.63;;;;;;;;;;10280995;28;20463;-64
2022/11/28 22:50:18;;;;;;;21.33;15.23;;;;;;;;;;10281000;28;20422;-63
2022/11/28 22:55:17;;;;;;;26.52;18.02;;;;;;;;;;10271149;28;20041;-63
2022/11/28 23:00:15;;;;;;;21.20;14.00;;;;;;;;;;10256689;28;20072;-63
2022/11/28 23:05:15;;;;;;;21.35;14.73;;;;;;;;;;10257163;28;20533;-63
2022/11/28 23:10:14;;;;;;;19.42;13.48;;;;;;;;;;10276269;28;20041;-64
2022/11/28 23:15:13;;;;;;;20.60;15.48;;;;;;;;;;10280336;28;20084;-64
2022/11/28 23:20:11;;;;;;;16.52;14.00;;;;;;;;;;10278833;28;20053;-64
2022/11/28 23:25:11;;;;;;;18.75;15.55;;;;;;;;;;10294879;28;20045;-63
2022/11/28 23:30:10;;;;;;;21.25;14.27;;;;;;;;;;10278195;28;20214;-64
2022/11/28 23:35:08;;;;;;;18.17;13.68;;;;;;;;;;10279552;28;20037;-64
2022/11/28 23:40:07;;;;;;;19.83;14.57;;;;;;;;;;10278752;28;20081;-63
2022/11/28 23:45:08;;;;;;;18.75;13.88;;;;;;;;;;10274392;28;20502;-63
2022/11/28 23:50:07;;;;;;;19.95;14.73;;;;;;;;;;10267801;28;20096;-64
2022/11/28 23:55:05;;;;;;;19.27;14.63;;;;;;;;;;10255403;28;20072;-63
